Time;durP1;ratioP1;P1;durP2;ratioP2;P2;SDS_P1;SDS_P2;PMS_P1;PMS_P2;Temp;Humidity;BMP_temperature;BMP_pressure;BME280_temperature;BME280_humidity;BME280_pressure;Samples;Min_cycle;Max_cycle;Signal;HPM_P1;HPM_P2
2023/06/08 00:01:25;;;;;;;0.20;0.20;;;;;;;;;;5149876;27;20046;-48
2023/06/08 00:03:52;;;;;;;0.20;0.20;;;;;;;;;;5154123;27;20453;-47
2023/06/08 00:06:20;;;;;;;0.20;0.20;;;;;;;;;;5152893;27;20042;-46
2023/06/08 00:08:46;;;;;;;0.20;0.20;;;;;;;;;;5114753;27;20596;-46
2023/06/08 00:11:12;;;;;;;0.20;0.20;;;;;;;;;;5148006;27;20042;-47
2023/06/08 00:13:37;;;;;;;0.20;0.20;;;;;;;;;;5152772;27;20053;-47
2023/06/08 00:16:04;;;;;;;0.20;0.20;;;;;;;;;;5153645;27;20082;-49
2023/06/08 00:18:30;;;;;;;0.20;0.20;;;;;;;;;;5134625;27;20075;-49
2023/06/08 00:20:56;;;;;;;0.20;0.20;;;;;;;;;;5146394;27;20046;-46
2023/06/08 00:23:22;;;;;;;0.20;0.20;;;;;;;;;;5156809;27;20405;-46
2023/06/08 00:25:48;;;;;;;0.20;0.20;;;;;;;;;;5135486;27;20089;-47
2023/06/08 00:28:15;;;;;;;0.20;0.20;;;;;;;;;;5136016;27;20046;-47
2023/06/08 00:30:41;;;;;;;0.20;0.20;;;;;;;;;;5117187;27;20441;-48
2023/06/08 00:33:06;;;;;;;0.20;0.20;;;;;;;;;;5136067;27;20053;-47
2023/06/08 00:35:32;;;;;;;0.25;0.25;;;;;;;;;;5136146;27;20162;-47
2023/06/08 00:37:57;;;;;;;0.20;0.20;;;;;;;;;;5136058;27;20047;-47
2023/06/08 00:40:23;;;;;;;0.20;0.20;;;;;;;;;;5144305;27;20183;-47
2023/06/08 00:42:49;;;;;;;0.20;0.20;;;;;;;;;;5156414;27;20537;-47
2023/06/08 00:45:14;;;;;;;0.10;0.10;;;;;;;;;;5137469;27;20413;-48
2023/06/08 00:47:40;;;;;;;0.20;0.20;;;;;;;;;;5135798;27;20047;-48
2023/06/08 00:50:08;;;;;;;0.20;0.20;;;;;;;;;;5141352;27;20042;-47
2023/06/08 00:52:34;;;;;;;0.10;0.10;;;;;;;;;;5157102;27;20046;-47
2023/06/08 00:55:01;;;;;;;0.20;0.20;;;;;;;;;;5156615;27;20080;-47
2023/06/08 00:57:28;;;;;;;0.20;0.20;;;;;;;;;;5125633;27;20078;-47
2023/06/08 00:59:55;;;;;;;0.10;0.10;;;;;;;;;;5123014;27;20525;-47
2023/06/08 01:02:22;;;;;;;0.10;0.10;;;;;;;;;;5138829;27;20050;-47
2023/06/08 01:04:50;;;;;;;0.20;0.20;;;;;;;;;;5137898;27;20061;-47
2023/06/08 01:07:30;;;;;;;0.10;0.10;;;;;;;;;;5149306;27;20486;-47
2023/06/08 01:10:00;;;;;;;0.20;0.20;;;;;;;;;;5139988;27;20154;-49
2023/06/08 01:12:32;;;;;;;0.20;0.20;;;;;;;;;;5156966;27;20501;-48
2023/06/08 01:15:05;;;;;;;0.20;0.20;;;;;;;;;;5156111;27;20498;-47
2023/06/08 01:17:37;;;;;;;0.20;0.20;;;;;;;;;;5146906;27;20043;-49
2023/06/08 01:20:20;;;;;;;0.20;0.20;;;;;;;;;;5141343;27;20319;-48
2023/06/08 01:23:07;;;;;;;0.20;0.20;;;;;;;;;;5157088;27;20099;-47
2023/06/08 01:25:35;;;;;;;0.20;0.20;;;;;;;;;;5141192;27;20042;-47
2023/06/08 01:28:11;;;;;;;;;;;;;;;;;;5141862;27;20438;-48
2023/06/08 01:30:37;;;;;;;0.20;0.20;;;;;;;;;;5148938;27;19927;-48
2023/06/08 01:33:03;;;;;;;0.20;0.20;;;;;;;;;;5157361;27;20298;-47
2023/06/08 01:35:29;;;;;;;0.20;0.20;;;;;;;;;;5156352;27;20227;-50
2023/06/08 01:37:58;;;;;;;0.20;0.20;;;;;;;;;;5144463;27;20047;-48
2023/06/08 01:40:26;;;;;;;0.10;0.10;;;;;;;;;;5143503;27;20049;-47
2023/06/08 01:42:53;;;;;;;0.20;0.20;;;;;;;;;;5156793;27;20114;-47
2023/06/08 01:45:21;;;;;;;0.20;0.20;;;;;;;;;;5156223;27;20050;-47
2023/06/08 01:47:49;;;;;;;0.10;0.10;;;;;;;;;;5145954;27;20043;-48
2023/06/08 01:50:15;;;;;;;0.20;0.20;;;;;;;;;;5139588;27;20486;-47
2023/06/08 01:52:43;;;;;;;0.20;0.20;;;;;;;;;;5156044;27;20485;-49
2023/06/08 01:55:16;;;;;;;0.20;0.20;;;;;;;;;;5156338;27;20045;-47
2023/06/08 01:57:42;;;;;;;0.20;0.20;;;;;;;;;;5146398;27;20051;-47
2023/06/08 02:00:08;;;;;;;0.20;0.20;;;;;;;;;;5140431;27;20442;-47
2023/06/08 02:02:35;;;;;;;0.20;0.20;;;;;;;;;;5156290;27;20053;-48
2023/06/08 02:05:01;;;;;;;0.20;0.20;;;;;;;;;;5156452;27;20463;-47
2023/06/08 02:07:26;;;;;;;0.10;0.10;;;;;;;;;;5126799;27;20369;-48
2023/06/08 02:09:52;;;;;;;0.20;0.20;;;;;;;;;;5121882;27;20046;-48
2023/06/08 02:12:17;;;;;;;0.20;0.20;;;;;;;;;;5155307;27;20360;-48
2023/06/08 02:14:43;;;;;;;0.20;0.20;;;;;;;;;;5155935;27;20326;-49
2023/06/08 02:17:08;;;;;;;0.20;0.20;;;;;;;;;;5152024;27;20521;-47
2023/06/08 02:19:34;;;;;;;0.20;0.20;;;;;;;;;;5135542;27;20136;-47
2023/06/08 02:22:00;;;;;;;0.10;0.10;;;;;;;;;;5155727;27;20330;-48
2023/06/08 02:24:26;;;;;;;0.20;0.20;;;;;;;;;;5136939;27;20078;-48
2023/06/08 02:26:52;;;;;;;0.20;0.20;;;;;;;;;;5135930;27;20038;-46
2023/06/08 02:29:17;;;;;;;0.10;0.10;;;;;;;;;;5114112;27;20551;-49
2023/06/08 02:31:43;;;;;;;0.20;0.20;;;;;;;;;;5116184;27;20035;-49
2023/06/08 02:34:10;;;;;;;0.20;0.20;;;;;;;;;;5134717;27;20455;-47
2023/06/08 02:36:36;;;;;;;0.20;0.20;;;;;;;;;;5116571;27;20042;-48
2023/06/08 02:39:01;;;;;;;0.20;0.20;;;;;;;;;;5133762;27;20049;-48
2023/06/08 02:41:27;;;;;;;0.20;0.20;;;;;;;;;;5151089;27;20078;-47
2023/06/08 02:43:52;;;;;;;0.20;0.20;;;;;;;;;;5155080;27;20053;-48
2023/06/08 02:46:18;;;;;;;0.20;0.20;;;;;;;;;;5155708;27;20295;-47
2023/06/08 02:48:43;;;;;;;0.20;0.20;;;;;;;;;;5138434;27;20078;-47
2023/06/08 02:51:09;;;;;;;0.20;0.20;;;;;;;;;;5134784;27;20046;-47
2023/06/08 02:53:35;;;;;;;0.20;0.20;;;;;;;;;;5133674;27;20062;-46
2023/06/08 02:56:02;;;;;;;0.20;0.20;;;;;;;;;;5134236;27;20129;-47
2023/06/08 02:58:30;;;;;;;0.20;0.20;;;;;;;;;;5133583;27;20099;-47
2023/06/08 03:01:00;;;;;;;0.20;0.20;;;;;;;;;;5146212;27;20271;-47
2023/06/08 03:03:46;;;;;;;0.20;0.20;;;;;;;;;;5154347;27;20068;-47
2023/06/08 03:06:14;;;;;;;0.20;0.20;;;;;;;;;;5136315;27;20042;-47
2023/06/08 03:08:40;;;;;;;0.20;0.20;;;;;;;;;;5139387;27;20038;-49
2023/06/08 03:11:05;;;;;;;0.10;0.10;;;;;;;;;;5147843;27;20050;-47
2023/06/08 03:13:31;;;;;;;0.20;0.20;;;;;;;;;;5154221;27;20200;-47
2023/06/08 03:15:56;;;;;;;0.20;0.20;;;;;;;;;;5155089;27;20479;-47
2023/06/08 03:18:24;;;;;;;0.30;0.30;;;;;;;;;;5142650;27;20564;-49
2023/06/08 03:20:51;;;;;;;0.10;0.10;;;;;;;;;;5146101;27;20164;-47
2023/06/08 03:23:19;;;;;;;0.20;0.20;;;;;;;;;;5154638;27;20050;-48
2023/06/08 03:25:48;;;;;;;0.20;0.20;;;;;;;;;;5155051;27;20074;-47
2023/06/08 03:28:14;;;;;;;0.20;0.20;;;;;;;;;;5145023;27;20493;-46
2023/06/08 03:30:40;;;;;;;0.20;0.20;;;;;;;;;;5153903;27;20406;-47
2023/06/08 03:33:06;;;;;;;0.13;0.13;;;;;;;;;;5134392;27;20047;-47
2023/06/08 03:35:32;;;;;;;0.20;0.20;;;;;;;;;;5134116;27;20156;-47
2023/06/08 03:37:58;;;;;;;0.20;0.20;;;;;;;;;;5133856;27;20255;-47
2023/06/08 03:40:23;;;;;;;0.22;0.22;;;;;;;;;;5141961;27;20210;-47
2023/06/08 03:42:50;;;;;;;0.20;0.20;;;;;;;;;;5154523;27;20292;-47
2023/06/08 03:45:17;;;;;;;0.15;0.15;;;;;;;;;;5154836;27;20046;-48
2023/06/08 03:47:42;;;;;;;0.20;0.20;;;;;;;;;;5127417;27;20468;-47
2023/06/08 03:50:08;;;;;;;0.22;0.22;;;;;;;;;;5125355;27;20861;-47
2023/06/08 03:52:34;;;;;;;0.20;0.20;;;;;;;;;;5137088;27;20153;-47
2023/06/08 03:54:59;;;;;;;0.20;0.20;;;;;;;;;;5134068;27;20130;-48
2023/06/08 03:57:25;;;;;;;0.20;0.20;;;;;;;;;;5136350;27;20180;-47
2023/06/08 03:59:50;;;;;;;0.20;0.20;;;;;;;;;;5140682;27;20038;-47
2023/06/08 04:02:16;;;;;;;0.20;0.20;;;;;;;;;;5158143;27;20054;-47
2023/06/08 04:04:44;;;;;;;0.20;0.20;;;;;;;;;;5158530;27;20046;-48
2023/06/08 04:07:10;;;;;;;0.20;0.20;;;;;;;;;;5157484;27;20074;-47
2023/06/08 04:09:36;;;;;;;0.20;0.20;;;;;;;;;;5138829;27;20061;-47
2023/06/08 04:12:01;;;;;;;0.20;0.20;;;;;;;;;;5157931;27;20525;-47
2023/06/08 04:14:27;;;;;;;0.20;0.20;;;;;;;;;;5157609;27;20050;-47
2023/06/08 04:16:52;;;;;;;0.20;0.20;;;;;;;;;;5157866;27;20052;-48
2023/06/08 04:19:18;;;;;;;0.20;0.20;;;;;;;;;;5139490;27;20046;-47
2023/06/08 04:21:43;;;;;;;0.20;0.20;;;;;;;;;;5156378;27;20129;-47
2023/06/08 04:24:14;;;;;;;0.20;0.20;;;;;;;;;;5158302;27;20042;-49
2023/06/08 04:26:40;;;;;;;0.30;0.30;;;;;;;;;;5158154;27;20065;-48
2023/06/08 04:29:06;;;;;;;0.20;0.20;;;;;;;;;;5145695;27;20745;-47
2023/06/08 04:31:31;;;;;;;0.20;0.20;;;;;;;;;;5157697;27;20482;-47
2023/06/08 04:33:57;;;;;;;0.20;0.20;;;;;;;;;;5145362;27;20053;-47
2023/06/08 04:36:22;;;;;;;0.20;0.20;;;;;;;;;;5136849;27;20480;-46
2023/06/08 04:38:48;;;;;;;0.20;0.20;;;;;;;;;;5135811;27;20047;-47
2023/06/08 04:41:14;;;;;;;0.20;0.20;;;;;;;;;;5152849;27;20572;-48
2023/06/08 04:43:40;;;;;;;0.20;0.20;;;;;;;;;;5157671;27;20293;-48
2023/06/08 04:46:07;;;;;;;0.20;0.20;;;;;;;;;;5157898;27;20077;-47
2023/06/08 04:48:35;;;;;;;0.20;0.20;;;;;;;;;;5146568;27;20555;-46
2023/06/08 04:51:03;;;;;;;0.10;0.10;;;;;;;;;;5150322;27;20268;-47
2023/06/08 04:53:30;;;;;;;;;;;;;;;;;;5146331;27;20322;-47
2023/06/08 04:55:59;;;;;;;0.20;0.20;;;;;;;;;;5136715;27;19961;-47
2023/06/08 04:58:25;;;;;;;0.20;0.20;;;;;;;;;;5136083;27;20043;-48
2023/06/08 05:00:52;;;;;;;0.20;0.20;;;;;;;;;;5148862;27;20482;-47
2023/06/08 05:03:19;;;;;;;0.20;0.20;;;;;;;;;;5157387;27;20050;-47
2023/06/08 05:05:45;;;;;;;0.10;0.10;;;;;;;;;;5138544;27;20522;-47
2023/06/08 05:08:11;;;;;;;0.20;0.20;;;;;;;;;;5149661;27;20521;-47
2023/06/08 05:10:36;;;;;;;0.20;0.20;;;;;;;;;;5146112;27;20093;-47
2023/06/08 05:13:02;;;;;;;0.20;0.20;;;;;;;;;;5157294;27;20493;-47
2023/06/08 05:15:28;;;;;;;0.20;0.20;;;;;;;;;;5157014;27;20053;-47
2023/06/08 05:17:55;;;;;;;0.10;0.10;;;;;;;;;;5153023;27;20462;-47
2023/06/08 05:20:22;;;;;;;0.20;0.20;;;;;;;;;;5144000;27;20049;-47
2023/06/08 05:22:47;;;;;;;0.10;0.10;;;;;;;;;;5157145;27;20046;-49
2023/06/08 05:25:13;;;;;;;0.20;0.20;;;;;;;;;;5157299;27;20913;-47
2023/06/08 05:27:39;;;;;;;0.20;0.20;;;;;;;;;;5140762;27;20051;-47
2023/06/08 05:30:05;;;;;;;0.20;0.20;;;;;;;;;;5154549;27;20431;-47
2023/06/08 05:32:31;;;;;;;0.20;0.20;;;;;;;;;;5157251;27;20066;-47
2023/06/08 05:34:58;;;;;;;0.20;0.20;;;;;;;;;;5152220;27;20200;-49
2023/06/08 05:37:24;;;;;;;0.20;0.20;;;;;;;;;;5135462;27;20043;-47
2023/06/08 05:39:50;;;;;;;0.20;0.20;;;;;;;;;;5138636;27;20065;-47
2023/06/08 05:42:15;;;;;;;0.20;0.20;;;;;;;;;;5156447;27;20050;-47
2023/06/08 05:44:41;;;;;;;0.20;0.20;;;;;;;;;;5156465;27;20085;-47
2023/06/08 05:47:06;;;;;;;0.20;0.20;;;;;;;;;;5156506;27;20106;-47
2023/06/08 05:49:32;;;;;;;0.20;0.20;;;;;;;;;;5139843;27;20078;-47
2023/06/08 05:51:57;;;;;;;0.20;0.20;;;;;;;;;;5156781;27;20072;-47
2023/06/08 05:54:23;;;;;;;0.20;0.20;;;;;;;;;;5152726;27;20530;-47
2023/06/08 05:56:50;;;;;;;0.20;0.20;;;;;;;;;;5133273;27;20183;-47
2023/06/08 05:59:15;;;;;;;0.10;0.10;;;;;;;;;;5135336;27;20049;-47
2023/06/08 06:01:41;;;;;;;0.20;0.20;;;;;;;;;;5154785;27;20049;-47
2023/06/08 06:04:07;;;;;;;0.20;0.20;;;;;;;;;;5157048;27;20138;-47
2023/06/08 06:06:41;;;;;;;0.20;0.20;;;;;;;;;;5156527;27;20050;-46
2023/06/08 06:09:08;;;;;;;0.20;0.20;;;;;;;;;;5142822;27;20047;-48
2023/06/08 06:11:33;;;;;;;0.20;0.20;;;;;;;;;;5153521;27;20135;-48
2023/06/08 06:13:59;;;;;;;0.20;0.20;;;;;;;;;;5156309;27;20777;-47
2023/06/08 06:16:24;;;;;;;0.20;0.20;;;;;;;;;;5156077;27;20042;-47
2023/06/08 06:18:50;;;;;;;0.20;0.20;;;;;;;;;;5144686;27;20046;-48
2023/06/08 06:21:16;;;;;;;0.20;0.20;;;;;;;;;;5150258;27;20496;-48
2023/06/08 06:23:42;;;;;;;0.20;0.20;;;;;;;;;;5137335;27;20038;-46
2023/06/08 06:26:08;;;;;;;0.20;0.20;;;;;;;;;;5152242;27;20084;-47
2023/06/08 06:28:34;;;;;;;0.20;0.20;;;;;;;;;;5115882;27;20551;-48
2023/06/08 06:30:59;;;;;;;0.10;0.10;;;;;;;;;;5147559;27;20336;-47
2023/06/08 06:33:25;;;;;;;0.10;0.10;;;;;;;;;;5155276;27;20046;-47
2023/06/08 06:35:51;;;;;;;0.20;0.20;;;;;;;;;;5155217;27;20053;-47
2023/06/08 06:38:16;;;;;;;0.10;0.10;;;;;;;;;;5134752;27;20196;-48
2023/06/08 06:40:42;;;;;;;0.20;0.20;;;;;;;;;;5144454;27;20481;-47
2023/06/08 06:43:07;;;;;;;0.20;0.20;;;;;;;;;;5155021;27;20038;-47
2023/06/08 06:45:33;;;;;;;0.20;0.20;;;;;;;;;;5155689;27;20205;-47
2023/06/08 06:47:58;;;;;;;0.20;0.20;;;;;;;;;;5153521;27;20049;-46
2023/06/08 06:50:24;;;;;;;0.20;0.20;;;;;;;;;;5141962;27;20497;-47
2023/06/08 06:52:50;;;;;;;0.20;0.20;;;;;;;;;;5154791;27;20042;-47
2023/06/08 06:55:15;;;;;;;0.20;0.20;;;;;;;;;;5155273;27;20496;-47
2023/06/08 06:57:41;;;;;;;0.20;0.20;;;;;;;;;;5138774;27;20058;-47
2023/06/08 07:00:10;;;;;;;0.20;0.20;;;;;;;;;;5139974;27;20057;-49
2023/06/08 07:02:37;;;;;;;0.20;0.20;;;;;;;;;;5155630;27;20049;-47
2023/06/08 07:05:04;;;;;;;0.10;0.10;;;;;;;;;;5136340;27;20130;-48
2023/06/08 07:07:30;;;;;;;0.20;0.20;;;;;;;;;;5154866;27;20670;-49
2023/06/08 07:09:55;;;;;;;0.20;0.20;;;;;;;;;;5121278;27;20042;-48
2023/06/08 07:12:21;;;;;;;0.10;0.10;;;;;;;;;;5144836;27;20043;-48
2023/06/08 07:14:46;;;;;;;0.20;0.20;;;;;;;;;;5133977;27;20137;-48
2023/06/08 07:17:12;;;;;;;0.20;0.20;;;;;;;;;;5134545;27;20528;-47
2023/06/08 07:19:39;;;;;;;0.20;0.20;;;;;;;;;;5134878;27;20126;-47
2023/06/08 07:22:05;;;;;;;0.20;0.20;;;;;;;;;;5154480;27;20573;-47
2023/06/08 07:24:44;;;;;;;0.30;0.30;;;;;;;;;;5138637;27;20417;-47
2023/06/08 07:27:30;;;;;;;0.20;0.20;;;;;;;;;;5106728;27;20043;-48
2023/06/08 07:29:56;;;;;;;0.20;0.20;;;;;;;;;;5134912;27;20035;-47
2023/06/08 07:32:21;;;;;;;0.20;0.20;;;;;;;;;;5158819;27;20042;-47
2023/06/08 07:34:47;;;;;;;0.20;0.20;;;;;;;;;;5158818;27;20046;-48
2023/06/08 07:37:13;;;;;;;0.20;0.20;;;;;;;;;;5158989;27;20057;-48
2023/06/08 07:39:38;;;;;;;0.20;0.20;;;;;;;;;;5141987;27;20042;-47
2023/06/08 07:42:05;;;;;;;0.20;0.20;;;;;;;;;;5158206;27;20060;-47
2023/06/08 07:44:30;;;;;;;0.20;0.20;;;;;;;;;;5158189;27;20047;-47
2023/06/08 07:46:56;;;;;;;0.20;0.20;;;;;;;;;;5158764;27;20069;-47
2023/06/08 07:49:23;;;;;;;0.20;0.20;;;;;;;;;;5147034;27;20049;-47
2023/06/08 07:51:49;;;;;;;0.10;0.10;;;;;;;;;;5157617;27;20198;-47
2023/06/08 07:54:19;;;;;;;0.20;0.20;;;;;;;;;;5157571;27;20034;-47
2023/06/08 07:56:46;;;;;;;0.20;0.20;;;;;;;;;;5157918;27;20046;-47
2023/06/08 07:59:12;;;;;;;0.17;0.17;;;;;;;;;;5127077;27;20526;-47
2023/06/08 08:01:37;;;;;;;0.20;0.20;;;;;;;;;;5156058;27;20050;-47
2023/06/08 08:04:03;;;;;;;0.20;0.20;;;;;;;;;;5157428;27;20206;-47
2023/06/08 08:06:28;;;;;;;0.20;0.20;;;;;;;;;;5158156;27;20536;-47
2023/06/08 08:08:54;;;;;;;0.20;0.20;;;;;;;;;;5151234;27;20043;-47
2023/06/08 08:11:20;;;;;;;0.20;0.20;;;;;;;;;;5153671;27;20053;-48
2023/06/08 08:13:46;;;;;;;0.20;0.20;;;;;;;;;;5157709;27;20071;-47
2023/06/08 08:16:11;;;;;;;0.20;0.20;;;;;;;;;;5157903;27;20210;-47
2023/06/08 08:18:37;;;;;;;0.20;0.20;;;;;;;;;;5153838;27;20057;-47
2023/06/08 08:21:02;;;;;;;0.20;0.20;;;;;;;;;;5151152;27;20296;-48
2023/06/08 08:23:28;;;;;;;0.20;0.20;;;;;;;;;;5157773;27;20148;-47
2023/06/08 08:25:53;;;;;;;0.20;0.20;;;;;;;;;;5139735;27;20491;-47
2023/06/08 08:28:19;;;;;;;0.20;0.20;;;;;;;;;;5117166;27;20058;-47
2023/06/08 08:30:44;;;;;;;0.20;0.20;;;;;;;;;;5148223;27;20042;-47
2023/06/08 08:33:12;;;;;;;0.20;0.20;;;;;;;;;;5158228;27;20049;-48
2023/06/08 08:35:41;;;;;;;0.20;0.20;;;;;;;;;;5139752;27;20054;-46
2023/06/08 08:38:06;;;;;;;0.20;0.20;;;;;;;;;;5157311;27;20046;-47
2023/06/08 08:40:32;;;;;;;0.20;0.20;;;;;;;;;;5138250;27;20047;-47
2023/06/08 08:43:01;;;;;;;0.20;0.20;;;;;;;;;;5136174;27;20402;-47
2023/06/08 08:45:28;;;;;;;0.20;0.20;;;;;;;;;;5136949;27;20482;-47
2023/06/08 08:47:54;;;;;;;0.20;0.20;;;;;;;;;;5136970;27;20818;-47
2023/06/08 08:50:20;;;;;;;0.10;0.10;;;;;;;;;;5144216;27;20039;-48
2023/06/08 08:52:48;;;;;;;0.20;0.20;;;;;;;;;;5157757;27;20046;-47
2023/06/08 08:55:13;;;;;;;0.20;0.20;;;;;;;;;;5157724;27;20070;-48
2023/06/08 08:57:59;;;;;;;0.20;0.20;;;;;;;;;;5157814;27;20054;-46
2023/06/08 09:00:26;;;;;;;0.20;0.20;;;;;;;;;;5122615;27;20070;-47
2023/06/08 09:02:52;;;;;;;0.20;0.20;;;;;;;;;;5136860;27;20505;-47
2023/06/08 09:05:18;;;;;;;0.20;0.20;;;;;;;;;;5135197;27;20542;-48
2023/06/08 09:07:43;;;;;;;0.20;0.20;;;;;;;;;;5136288;27;20057;-48
2023/06/08 09:10:13;;;;;;;0.20;0.20;;;;;;;;;;5141554;27;20061;-47
2023/06/08 09:12:39;;;;;;;0.20;0.20;;;;;;;;;;5157575;27;20224;-47
2023/06/08 09:15:05;;;;;;;0.20;0.20;;;;;;;;;;5157316;27;20046;-47
2023/06/08 09:17:37;;;;;;;0.20;0.20;;;;;;;;;;5157681;27;20042;-47
2023/06/08 09:20:03;;;;;;;0.20;0.20;;;;;;;;;;5147013;27;20111;-49
2023/06/08 09:22:30;;;;;;;0.20;0.20;;;;;;;;;;5138735;27;20436;-47
2023/06/08 09:24:57;;;;;;;0.20;0.20;;;;;;;;;;5139730;27;20100;-47
2023/06/08 09:27:25;;;;;;;0.20;0.20;;;;;;;;;;5157141;27;20074;-47
2023/06/08 09:29:52;;;;;;;0.20;0.20;;;;;;;;;;5128842;27;20525;-46
2023/06/08 09:32:20;;;;;;;0.20;0.20;;;;;;;;;;5138611;27;20082;-46
2023/06/08 09:34:52;;;;;;;0.10;0.10;;;;;;;;;;5138540;27;20057;-47
2023/06/08 09:37:18;;;;;;;0.20;0.20;;;;;;;;;;5156256;27;20490;-47
2023/06/08 09:39:45;;;;;;;0.20;0.20;;;;;;;;;;5147556;27;20043;-47
2023/06/08 09:42:11;;;;;;;0.20;0.20;;;;;;;;;;5129447;27;20050;-48
2023/06/08 09:44:37;;;;;;;0.20;0.20;;;;;;;;;;5134912;27;20047;-48
2023/06/08 09:47:22;;;;;;;0.20;0.20;;;;;;;;;;5136162;27;20074;-47
2023/06/08 09:49:50;;;;;;;0.20;0.20;;;;;;;;;;5132290;27;20046;-47
2023/06/08 09:52:18;;;;;;;0.20;0.20;;;;;;;;;;5138472;27;20109;-47
2023/06/08 09:54:45;;;;;;;0.15;0.15;;;;;;;;;;5137277;27;20589;-47
2023/06/08 09:57:11;;;;;;;0.20;0.20;;;;;;;;;;5156505;27;20085;-47
2023/06/08 09:59:38;;;;;;;0.20;0.20;;;;;;;;;;5148236;27;20042;-48
2023/06/08 10:02:23;;;;;;;0.20;0.20;;;;;;;;;;5147763;27;20051;-47
2023/06/08 10:04:52;;;;;;;0.20;0.20;;;;;;;;;;5120327;27;20072;-48
2023/06/08 10:07:19;;;;;;;0.20;0.20;;;;;;;;;;5116139;27;20078;-48
2023/06/08 10:09:45;;;;;;;0.10;0.10;;;;;;;;;;5118074;27;20054;-46
2023/06/08 10:12:14;;;;;;;0.20;0.20;;;;;;;;;;5137652;27;20042;-47
2023/06/08 10:14:40;;;;;;;0.20;0.20;;;;;;;;;;5156106;27;20416;-48
2023/06/08 10:17:06;;;;;;;0.20;0.20;;;;;;;;;;5155766;27;20042;-47
2023/06/08 10:19:32;;;;;;;0.20;0.20;;;;;;;;;;5148108;27;20526;-47
2023/06/08 10:21:59;;;;;;;0.20;0.20;;;;;;;;;;5155137;27;20545;-47
2023/06/08 10:24:26;;;;;;;0.20;0.20;;;;;;;;;;5145796;27;20043;-47
2023/06/08 10:27:06;;;;;;;0.20;0.20;;;;;;;;;;5112705;28;20096;-47
2023/06/08 10:29:31;;;;;;;0.17;0.17;;;;;;;;;;5121681;27;20069;-47
2023/06/08 10:31:57;;;;;;;0.20;0.20;;;;;;;;;;5154895;27;20042;-47
2023/06/08 10:34:23;;;;;;;0.20;0.20;;;;;;;;;;5155868;27;20125;-47
2023/06/08 10:36:48;;;;;;;0.20;0.20;;;;;;;;;;5155813;27;20175;-47
2023/06/08 10:39:16;;;;;;;0.20;0.20;;;;;;;;;;5149753;27;20074;-47
2023/06/08 10:41:44;;;;;;;0.10;0.10;;;;;;;;;;5113902;27;20066;-47
2023/06/08 10:44:29;;;;;;;0.10;0.10;;;;;;;;;;5116386;27;20059;-46
2023/06/08 10:46:57;;;;;;;0.20;0.20;;;;;;;;;;5133853;27;20070;-47
2023/06/08 10:49:22;;;;;;;0.20;0.20;;;;;;;;;;5134043;27;20414;-47
2023/06/08 10:51:53;;;;;;;0.20;0.20;;;;;;;;;;5154230;27;20256;-47
2023/06/08 10:54:20;;;;;;;0.20;0.20;;;;;;;;;;5155231;27;20049;-47
2023/06/08 10:56:51;;;;;;;0.20;0.20;;;;;;;;;;5136657;27;20054;-48
2023/06/08 10:59:37;;;;;;;0.20;0.20;;;;;;;;;;5115037;27;20604;-48
2023/06/08 11:02:04;;;;;;;0.20;0.20;;;;;;;;;;5154754;27;20069;-47
2023/06/08 11:04:30;;;;;;;0.10;0.10;;;;;;;;;;5140606;27;20094;-46
2023/06/08 11:07:13;;;;;;;0.20;0.20;;;;;;;;;;5133842;27;20047;-47
2023/06/08 11:09:46;;;;;;;0.20;0.20;;;;;;;;;;5136361;27;20050;-48
2023/06/08 11:12:11;;;;;;;0.45;0.30;;;;;;;;;;5154579;27;20048;-47
2023/06/08 11:14:37;;;;;;;0.20;0.20;;;;;;;;;;5154147;27;20088;-48
2023/06/08 11:17:03;;;;;;;0.15;0.15;;;;;;;;;;5134416;27;20069;-47
2023/06/08 11:19:30;;;;;;;0.20;0.20;;;;;;;;;;5128508;27;20047;-48
2023/06/08 11:21:56;;;;;;;0.20;0.20;;;;;;;;;;5133719;27;20113;-47
2023/06/08 11:24:27;;;;;;;0.20;0.20;;;;;;;;;;5102330;28;20723;-47
2023/06/08 11:26:57;;;;;;;0.20;0.20;;;;;;;;;;5113001;28;20559;-47
2023/06/08 11:29:30;;;;;;;0.10;0.10;;;;;;;;;;5113524;27;20124;-48
2023/06/08 11:32:08;;;;;;;0.20;0.20;;;;;;;;;;5133620;27;20051;-47
2023/06/08 11:34:33;;;;;;;0.10;0.10;;;;;;;;;;5115087;27;20076;-46
2023/06/08 11:36:59;;;;;;;0.20;0.20;;;;;;;;;;5133623;27;20051;-47
2023/06/08 11:39:29;;;;;;;0.20;0.20;;;;;;;;;;5106529;28;20043;-47
2023/06/08 11:41:55;;;;;;;0.20;0.20;;;;;;;;;;5132674;27;20217;-48
2023/06/08 11:44:20;;;;;;;0.20;0.20;;;;;;;;;;5132492;27;20047;-47
2023/06/08 11:46:46;;;;;;;0.20;0.20;;;;;;;;;;5116306;27;20201;-47
2023/06/08 11:49:11;;;;;;;0.20;0.20;;;;;;;;;;5113402;28;20275;-47
2023/06/08 11:51:46;;;;;;;0.20;0.20;;;;;;;;;;5131531;27;20050;-48
2023/06/08 11:54:11;;;;;;;0.20;0.20;;;;;;;;;;5114835;27;20095;-47
2023/06/08 11:56:37;;;;;;;0.20;0.20;;;;;;;;;;5133321;27;20129;-47
2023/06/08 11:59:03;;;;;;;0.20;0.20;;;;;;;;;;5132705;27;20184;-46
2023/06/08 12:01:29;;;;;;;0.20;0.20;;;;;;;;;;5130352;27;20159;-48
2023/06/08 12:03:56;;;;;;;0.20;0.20;;;;;;;;;;5113651;27;20043;-47
2023/06/08 12:06:24;;;;;;;0.20;0.20;;;;;;;;;;5115151;27;20047;-47
2023/06/08 12:08:50;;;;;;;0.10;0.10;;;;;;;;;;5112218;27;20058;-46
2023/06/08 12:11:15;;;;;;;0.20;0.20;;;;;;;;;;5128048;27;20180;-47
2023/06/08 12:13:42;;;;;;;0.20;0.20;;;;;;;;;;5114396;27;20085;-48
2023/06/08 12:16:08;;;;;;;0.20;0.20;;;;;;;;;;5123562;27;20043;-47
2023/06/08 12:18:38;;;;;;;0.17;0.17;;;;;;;;;;5095730;28;20104;-48
2023/06/08 12:21:05;;;;;;;0.20;0.20;;;;;;;;;;5097296;28;20055;-47
2023/06/08 12:23:31;;;;;;;0.20;0.20;;;;;;;;;;5096618;28;20427;-47
2023/06/08 12:25:56;;;;;;;0.17;0.17;;;;;;;;;;5116044;27;20529;-47
2023/06/08 12:28:23;;;;;;;0.20;0.20;;;;;;;;;;5098030;28;20399;-48
2023/06/08 12:30:48;;;;;;;0.15;0.15;;;;;;;;;;5097421;28;20108;-48
2023/06/08 12:33:17;;;;;;;0.10;0.10;;;;;;;;;;5115810;28;20484;-47
2023/06/08 12:35:43;;;;;;;0.20;0.20;;;;;;;;;;5097415;28;20054;-47
2023/06/08 12:38:09;;;;;;;0.20;0.20;;;;;;;;;;5115490;27;20047;-47
2023/06/08 12:40:34;;;;;;;0.20;0.20;;;;;;;;;;5125231;27;20053;-47
2023/06/08 12:43:00;;;;;;;0.20;0.20;;;;;;;;;;5135898;27;20043;-47
2023/06/08 12:45:27;;;;;;;0.20;0.20;;;;;;;;;;5117643;27;20415;-47
2023/06/08 12:47:53;;;;;;;0.20;0.20;;;;;;;;;;5111115;28;20370;-47
2023/06/08 12:50:25;;;;;;;0.20;0.20;;;;;;;;;;5122792;27;20622;-47
2023/06/08 12:52:51;;;;;;;0.20;0.20;;;;;;;;;;5135798;27;20043;-47
2023/06/08 12:55:17;;;;;;;0.30;0.30;;;;;;;;;;5135789;27;20091;-47
2023/06/08 12:57:43;;;;;;;0.20;0.20;;;;;;;;;;5117388;27;20043;-47
2023/06/08 13:00:11;;;;;;;0.20;0.20;;;;;;;;;;5133236;27;20043;-48
2023/06/08 13:02:37;;;;;;;0.10;0.10;;;;;;;;;;5136704;27;20047;-47
2023/06/08 13:05:03;;;;;;;0.20;0.20;;;;;;;;;;5136249;27;20057;-46
2023/06/08 13:07:30;;;;;;;0.20;0.20;;;;;;;;;;5136592;27;20094;-47
2023/06/08 13:09:56;;;;;;;0.20;0.20;;;;;;;;;;5134442;27;20138;-47
2023/06/08 13:12:21;;;;;;;0.20;0.20;;;;;;;;;;5136968;27;20130;-47
2023/06/08 13:14:47;;;;;;;0.20;0.20;;;;;;;;;;5136469;27;20092;-47
2023/06/08 13:17:15;;;;;;;0.20;0.20;;;;;;;;;;5136383;27;20039;-47
2023/06/08 13:19:40;;;;;;;0.10;0.10;;;;;;;;;;5134001;27;20441;-47
2023/06/08 13:22:07;;;;;;;0.20;0.20;;;;;;;;;;5133984;27;20420;-47
2023/06/08 13:24:33;;;;;;;0.20;0.20;;;;;;;;;;5114737;27;20075;-47
2023/06/08 13:26:59;;;;;;;0.20;0.20;;;;;;;;;;5115705;28;20594;-48
2023/06/08 13:29:25;;;;;;;0.10;0.10;;;;;;;;;;5114455;27;20389;-47
2023/06/08 13:31:51;;;;;;;0.15;0.15;;;;;;;;;;5116509;27;20067;-47
2023/06/08 13:34:17;;;;;;;0.20;0.20;;;;;;;;;;5115297;27;20494;-47
2023/06/08 13:36:42;;;;;;;0.10;0.10;;;;;;;;;;5114701;28;20089;-47
2023/06/08 13:39:08;;;;;;;0.20;0.20;;;;;;;;;;5114729;28;20348;-48
2023/06/08 13:41:35;;;;;;;0.10;0.10;;;;;;;;;;5132508;27;20088;-47
2023/06/08 13:44:01;;;;;;;0.20;0.20;;;;;;;;;;5134982;27;20446;-49
2023/06/08 13:46:27;;;;;;;0.20;0.20;;;;;;;;;;5135659;27;20170;-46
2023/06/08 13:48:52;;;;;;;0.20;0.20;;;;;;;;;;5130981;27;20075;-47
2023/06/08 13:51:18;;;;;;;0.10;0.10;;;;;;;;;;5129979;27;20034;-47
2023/06/08 13:53:43;;;;;;;0.10;0.10;;;;;;;;;;5134938;27;20043;-47
2023/06/08 13:56:09;;;;;;;0.20;0.20;;;;;;;;;;5134053;27;20631;-47
2023/06/08 13:58:35;;;;;;;0.20;0.20;;;;;;;;;;5134666;27;20091;-47
2023/06/08 14:01:00;;;;;;;0.20;0.20;;;;;;;;;;5134310;27;20479;-47
2023/06/08 14:03:26;;;;;;;0.20;0.20;;;;;;;;;;5134726;27;20477;-47
2023/06/08 14:05:52;;;;;;;0.10;0.10;;;;;;;;;;5134865;27;20042;-47
2023/06/08 14:08:17;;;;;;;0.20;0.20;;;;;;;;;;5135366;27;20054;-46
2023/06/08 14:10:43;;;;;;;0.20;0.20;;;;;;;;;;5134914;27;20088;-47
2023/06/08 14:13:09;;;;;;;0.10;0.10;;;;;;;;;;5134990;27;20528;-47
2023/06/08 14:15:34;;;;;;;0.10;0.10;;;;;;;;;;5116672;27;20086;-47
2023/06/08 14:18:00;;;;;;;0.20;0.20;;;;;;;;;;5135575;27;20058;-47
2023/06/08 14:20:27;;;;;;;0.20;0.20;;;;;;;;;;5133749;27;20156;-46
2023/06/08 14:22:53;;;;;;;0.10;0.10;;;;;;;;;;5117694;27;20376;-47
2023/06/08 14:25:18;;;;;;;0.20;0.20;;;;;;;;;;5127295;27;20103;-48
2023/06/08 14:27:44;;;;;;;0.20;0.20;;;;;;;;;;5135495;27;20172;-46
2023/06/08 14:30:10;;;;;;;0.20;0.20;;;;;;;;;;5134153;27;20114;-48
2023/06/08 14:32:36;;;;;;;0.20;0.20;;;;;;;;;;5116648;27;20053;-47
2023/06/08 14:35:01;;;;;;;0.20;0.20;;;;;;;;;;5114418;27;20137;-47
2023/06/08 14:37:27;;;;;;;0.20;0.20;;;;;;;;;;5114672;28;20055;-47
2023/06/08 14:39:52;;;;;;;0.20;0.20;;;;;;;;;;5114017;27;20059;-51
2023/06/08 14:42:18;;;;;;;0.20;0.20;;;;;;;;;;5114435;28;20525;-47